Time;durP1;ratioP1;P1;durP2;ratioP2;P2;SDS_P1;SDS_P2;PMS_P1;PMS_P2;Temp;Humidity;BMP_temperature;BMP_pressure;BME280_temperature;BME280_humidity;BME280_pressure;Samples;Min_cycle;Max_cycle;Signal;HPM_P1;HPM_P2
2022/08/25 00:01:22;;;;;;;24.25;7.07;;;18.90;99.90;;;;;;4989942;28;20022;-56
2022/08/25 00:03:49;;;;;;;22.55;7.20;;;18.90;99.90;;;;;;4990061;28;20074;-55
2022/08/25 00:06:15;;;;;;;19.80;7.00;;;19.00;99.90;;;;;;4989845;28;20433;-56
2022/08/25 00:08:41;;;;;;;12.73;6.13;;;18.80;99.90;;;;;;4989826;28;20034;-56
2022/08/25 00:11:18;;;;;;;21.87;6.57;;;18.80;99.90;;;;;;4989908;28;20109;-56
2022/08/25 00:13:49;;;;;;;19.08;7.32;;;18.80;99.90;;;;;;4990035;28;20261;-55
2022/08/25 00:16:17;;;;;;;17.88;6.32;;;18.80;99.90;;;;;;4989993;28;20057;-56
2022/08/25 00:18:46;;;;;;;19.05;8.20;;;18.80;99.90;;;;;;4990133;28;20023;-56
2022/08/25 00:21:13;;;;;;;20.45;7.65;;;18.80;99.90;;;;;;4989991;28;20026;-55
2022/08/25 00:23:39;;;;;;;16.60;6.88;;;18.90;99.90;;;;;;4989800;28;20490;-55
2022/08/25 00:26:06;;;;;;;26.65;9.63;;;18.90;99.90;;;;;;4989250;28;20031;-55
2022/08/25 00:28:32;;;;;;;;;;;19.00;99.90;;;;;;4973155;28;20027;-55
2022/08/25 00:31:00;;;;;;;20.42;10.07;;;19.00;99.90;;;;;;4989961;28;19909;-55
2022/08/25 00:33:26;;;;;;;22.92;7.72;;;19.00;99.90;;;;;;4972612;28;20034;-54
2022/08/25 00:35:53;;;;;;;23.60;9.55;;;19.00;99.90;;;;;;4989752;28;20423;-55
2022/08/25 00:38:19;;;;;;;16.80;7.45;;;19.00;99.90;;;;;;4990178;28;20057;-55
2022/08/25 00:40:45;;;;;;;15.35;7.90;;;19.00;99.90;;;;;;4989778;28;20574;-56
2022/08/25 00:43:11;;;;;;;15.63;7.20;;;19.00;99.90;;;;;;4974824;28;20038;-54
2022/08/25 00:45:37;;;;;;;24.55;8.38;;;19.00;99.90;;;;;;4993297;28;20030;-54
2022/08/25 00:48:04;;;;;;;15.77;7.78;;;19.00;99.90;;;;;;4993111;28;20076;-55
2022/08/25 00:50:31;;;;;;;24.13;7.87;;;19.10;99.90;;;;;;4993272;28;20029;-55
2022/08/25 00:53:00;;;;;;;19.65;8.02;;;19.00;99.90;;;;;;4993247;28;20282;-54
2022/08/25 00:55:38;;;;;;;23.35;8.38;;;18.90;99.90;;;;;;4993283;28;20030;-55
2022/08/25 00:58:12;;;;;;;16.80;8.25;;;18.80;99.90;;;;;;4993136;28;20060;-54
2022/08/25 01:00:42;;;;;;;25.02;8.82;;;18.80;99.90;;;;;;4993356;28;20038;-55
2022/08/25 01:03:08;;;;;;;18.45;9.38;;;18.80;99.90;;;;;;4992794;28;20053;-55
2022/08/25 01:05:34;;;;;;;16.42;8.45;;;18.70;99.90;;;;;;4992914;28;20030;-55
2022/08/25 01:08:02;;;;;;;17.15;9.07;;;18.60;99.90;;;;;;4992724;28;20034;-55
2022/08/25 01:10:28;;;;;;;;;;;18.60;99.90;;;;;;4992849;28;20054;-55
2022/08/25 01:13:00;;;;;;;16.48;8.23;;;18.60;99.90;;;;;;4992457;28;20470;-55
2022/08/25 01:15:26;;;;;;;18.20;8.50;;;18.70;99.90;;;;;;4975321;28;20035;-55
2022/08/25 01:17:56;;;;;;;24.05;7.93;;;18.80;99.90;;;;;;4993001;28;20105;-56
2022/08/25 01:20:25;;;;;;;20.98;8.68;;;18.80;99.90;;;;;;4992700;28;20030;-56
2022/08/25 01:22:51;;;;;;;16.00;8.82;;;18.80;99.90;;;;;;4991277;28;20046;-55
2022/08/25 01:25:29;;;;;;;26.70;8.88;;;18.90;99.90;;;;;;4992461;28;20030;-56
2022/08/25 01:27:55;;;;;;;15.00;7.53;;;18.90;99.90;;;;;;4992583;28;20030;-55
2022/08/25 01:30:22;;;;;;;17.40;7.97;;;18.90;99.90;;;;;;4992553;28;20142;-56
2022/08/25 01:32:48;;;;;;;20.20;7.32;;;18.90;99.90;;;;;;4992709;28;20052;-56
2022/08/25 01:35:14;;;;;;;19.58;7.15;;;18.90;99.90;;;;;;4992408;28;20549;-56
2022/08/25 01:37:40;;;;;;;16.03;7.80;;;19.00;99.90;;;;;;4992599;28;20102;-54
2022/08/25 01:40:06;;;;;;;17.08;7.78;;;18.90;99.90;;;;;;4992399;28;20433;-54
2022/08/25 01:42:53;;;;;;;19.13;8.50;;;18.90;99.90;;;;;;4991067;28;20034;-55
2022/08/25 01:45:20;;;;;;;20.33;8.88;;;18.90;99.90;;;;;;4974796;28;20121;-55
2022/08/25 01:47:46;;;;;;;15.57;8.05;;;18.90;99.90;;;;;;4992198;28;20037;-56
2022/08/25 01:50:12;;;;;;;17.50;7.85;;;18.90;99.90;;;;;;4992291;28;20031;-55
2022/08/25 01:52:52;;;;;;;20.42;9.05;;;18.90;99.90;;;;;;4992221;28;20057;-55
2022/08/25 01:55:19;;;;;;;16.38;8.27;;;18.90;99.90;;;;;;4991955;28;20033;-55
2022/08/25 01:57:45;;;;;;;20.73;8.35;;;18.90;99.90;;;;;;4992137;28;20072;-55
2022/08/25 02:00:13;;;;;;;18.38;8.48;;;18.90;99.90;;;;;;4992225;28;20038;-56
2022/08/25 02:02:41;;;;;;;17.92;8.55;;;18.90;99.90;;;;;;4990768;28;20437;-56
2022/08/25 02:05:08;;;;;;;21.05;8.80;;;18.90;99.90;;;;;;4992002;28;20061;-56
2022/08/25 02:07:34;;;;;;;;;;;18.90;99.90;;;;;;4992384;28;20022;-56
2022/08/25 02:10:01;;;;;;;17.65;8.40;;;19.00;99.90;;;;;;4991835;28;19928;-56
2022/08/25 02:12:30;;;;;;;15.18;8.70;;;19.00;99.90;;;;;;4991973;28;20061;-56
2022/08/25 02:15:00;;;;;;;18.70;8.52;;;19.00;99.90;;;;;;4992061;28;20030;-56
2022/08/25 02:17:27;;;;;;;22.65;8.63;;;19.00;99.90;;;;;;4991813;28;20023;-55
2022/08/25 02:19:55;;;;;;;;;;;18.90;99.90;;;;;;4992097;28;20076;-55
2022/08/25 02:22:22;;;;;;;19.20;9.48;;;18.90;99.90;;;;;;4991681;28;19957;-55
2022/08/25 02:24:48;;;;;;;24.05;8.95;;;19.00;99.90;;;;;;4991417;28;20039;-55
2022/08/25 02:27:13;;;;;;;15.75;8.40;;;18.90;99.90;;;;;;4990865;28;20085;-55
2022/08/25 02:29:39;;;;;;;19.88;9.25;;;18.90;99.90;;;;;;4990992;28;20041;-55
2022/08/25 02:32:05;;;;;;;16.75;9.05;;;18.90;99.90;;;;;;4991505;28;20026;-55
2022/08/25 02:34:31;;;;;;;17.13;8.65;;;18.90;99.90;;;;;;4991238;28;20433;-55
2022/08/25 02:36:57;;;;;;;16.67;8.90;;;18.80;99.90;;;;;;4991112;28;20065;-55
2022/08/25 02:39:22;;;;;;;19.35;9.20;;;18.80;99.90;;;;;;4991221;28;20034;-55
2022/08/25 02:41:49;;;;;;;18.92;9.82;;;18.80;99.90;;;;;;4991234;28;20029;-55
2022/08/25 02:44:14;;;;;;;22.55;9.43;;;18.80;99.90;;;;;;4991535;28;20039;-56
2022/08/25 02:46:40;;;;;;;23.90;9.27;;;18.80;99.90;;;;;;4991408;28;20474;-56
2022/08/25 02:49:06;;;;;;;21.45;9.57;;;18.70;99.90;;;;;;4991116;28;20113;-55
2022/08/25 02:51:33;;;;;;;28.42;11.70;;;18.80;99.90;;;;;;4990883;28;20026;-55
2022/08/25 02:54:01;;;;;;;23.55;10.05;;;18.70;99.90;;;;;;4990825;28;20022;-55
2022/08/25 02:56:27;;;;;;;17.85;10.05;;;18.70;99.90;;;;;;4990985;28;20042;-55
2022/08/25 02:58:54;;;;;;;16.02;9.93;;;18.80;99.90;;;;;;4990925;28;20023;-55
2022/08/25 03:01:20;;;;;;;21.92;9.75;;;18.80;99.90;;;;;;4990945;28;20062;-56
2022/08/25 03:03:47;;;;;;;17.58;10.77;;;18.80;99.90;;;;;;4990904;28;20034;-56
2022/08/25 03:06:16;;;;;;;23.92;10.52;;;18.80;99.90;;;;;;4990286;28;20509;-56
2022/08/25 03:08:42;;;;;;;20.13;9.30;;;18.80;99.90;;;;;;4991024;28;20027;-56
2022/08/25 03:11:08;;;;;;;21.98;10.23;;;18.80;99.90;;;;;;4990637;28;20029;-55
2022/08/25 03:13:34;;;;;;;20.02;9.23;;;18.80;99.90;;;;;;4990810;28;20109;-54
2022/08/25 03:16:01;;;;;;;17.70;8.75;;;18.80;99.90;;;;;;4990628;28;20109;-55
2022/08/25 03:18:27;;;;;;;17.00;8.85;;;18.80;99.90;;;;;;4990683;28;20034;-55
2022/08/25 03:20:53;;;;;;;19.05;8.65;;;18.80;99.90;;;;;;4990416;28;20054;-55
2022/08/25 03:23:19;;;;;;;16.90;8.45;;;18.80;99.90;;;;;;4990836;28;20125;-55
2022/08/25 03:28:31;;;;;;;18.75;9.20;;;18.80;99.90;;;;;;4990717;28;20033;-55
2022/08/25 03:30:59;;;;;;;15.55;8.98;;;18.80;99.90;;;;;;4990593;28;20031;-55
2022/08/25 03:33:25;;;;;;;;;;;18.80;99.90;;;;;;4991141;28;20026;-55
2022/08/25 03:35:51;;;;;;;23.30;9.65;;;18.70;99.90;;;;;;4990253;28;20507;-55
2022/08/25 03:38:17;;;;;;;16.67;9.95;;;18.70;99.90;;;;;;4990147;28;20034;-55
2022/08/25 03:40:43;;;;;;;19.13;9.23;;;18.70;99.90;;;;;;4990346;28;20031;-55
2022/08/25 03:43:08;;;;;;;17.92;10.10;;;18.70;99.90;;;;;;4990501;28;20038;-55
2022/08/25 03:45:38;;;;;;;18.20;9.77;;;18.70;99.90;;;;;;4990406;28;20053;-56
2022/08/25 03:48:03;;;;;;;18.92;8.52;;;18.70;99.90;;;;;;4990226;28;20065;-54
2022/08/25 03:50:29;;;;;;;21.08;9.93;;;18.70;99.90;;;;;;4990231;28;20062;-54
2022/08/25 03:52:56;;;;;;;26.10;9.45;;;18.70;99.90;;;;;;4990154;28;20115;-54
2022/08/25 03:55:23;;;;;;;16.55;9.20;;;18.60;99.90;;;;;;4990399;28;20065;-54
2022/08/25 03:57:51;;;;;;;22.27;9.88;;;18.60;99.90;;;;;;4988753;28;20049;-54
2022/08/25 04:00:18;;;;;;;18.45;9.13;;;18.60;99.90;;;;;;4990417;28;20475;-54
2022/08/25 04:02:44;;;;;;;20.42;10.15;;;18.60;99.90;;;;;;4988798;28;20035;-54
2022/08/25 04:05:10;;;;;;;27.92;10.05;;;18.60;99.90;;;;;;4990395;28;20681;-54
2022/08/25 04:07:35;;;;;;;19.45;9.00;;;18.60;99.90;;;;;;4990447;28;20050;-54
2022/08/25 04:10:02;;;;;;;21.63;9.40;;;18.60;99.90;;;;;;4991334;28;20034;-54
2022/08/25 04:12:27;;;;;;;14.73;8.77;;;18.60;99.90;;;;;;5008562;28;20022;-54
2022/08/25 04:14:53;;;;;;;20.55;8.65;;;18.60;99.90;;;;;;5008501;28;20540;-55
2022/08/25 04:17:19;;;;;;;20.40;9.25;;;18.60;99.90;;;;;;5009574;28;20030;-54
2022/08/25 04:19:45;;;;;;;17.05;9.77;;;18.60;99.90;;;;;;4994566;28;20808;-54
2022/08/25 04:22:10;;;;;;;22.70;10.57;;;18.60;99.90;;;;;;5012406;28;20080;-55
2022/08/25 04:24:36;;;;;;;22.08;10.95;;;18.60;99.90;;;;;;5012019;28;20022;-54
2022/08/25 04:27:03;;;;;;;20.48;9.82;;;18.60;99.90;;;;;;5012021;28;20033;-55
2022/08/25 04:29:28;;;;;;;24.17;11.15;;;18.60;99.90;;;;;;5011952;28;20025;-54
2022/08/25 04:31:54;;;;;;;21.73;10.05;;;18.60;99.90;;;;;;5012309;28;20034;-55
2022/08/25 04:34:23;;;;;;;21.75;9.82;;;18.50;99.90;;;;;;5012222;28;20056;-54
2022/08/25 04:36:49;;;;;;;20.60;11.60;;;18.50;99.90;;;;;;5011989;28;20703;-54
2022/08/25 04:39:18;;;;;;;22.50;9.75;;;18.50;99.90;;;;;;5011867;28;20781;-55
2022/08/25 04:41:44;;;;;;;20.23;10.32;;;18.50;99.90;;;;;;5011836;28;20040;-55
2022/08/25 04:44:10;;;;;;;21.17;10.18;;;18.50;99.90;;;;;;4994013;28;20045;-54
2022/08/25 04:46:37;;;;;;;25.50;12.27;;;18.50;99.90;;;;;;5011556;28;20018;-55
2022/08/25 04:49:03;;;;;;;25.13;11.97;;;18.50;99.90;;;;;;5011919;28;20434;-55
2022/08/25 04:51:35;;;;;;;20.55;11.13;;;18.50;99.90;;;;;;5011872;28;20481;-55
2022/08/25 04:54:04;;;;;;;21.48;12.23;;;18.50;99.90;;;;;;5010031;28;20053;-54
2022/08/25 04:56:32;;;;;;;25.52;11.57;;;18.40;99.90;;;;;;5012751;28;20029;-54
2022/08/25 04:59:02;;;;;;;23.85;11.73;;;18.40;99.90;;;;;;5012554;28;20029;-54
2022/08/25 05:01:27;;;;;;;33.17;12.70;;;18.30;99.90;;;;;;5012822;28;20022;-54
2022/08/25 05:03:58;;;;;;;26.80;11.00;;;18.40;99.90;;;;;;5012650;28;20555;-55
2022/08/25 05:06:25;;;;;;;26.33;12.30;;;18.40;99.90;;;;;;5012630;28;20161;-55
2022/08/25 05:08:51;;;;;;;20.65;11.98;;;18.50;99.90;;;;;;5012500;28;20029;-55
2022/08/25 05:11:17;;;;;;;22.98;11.63;;;18.40;99.90;;;;;;5012432;28;20028;-55
2022/08/25 05:13:48;;;;;;;23.13;11.55;;;18.40;99.90;;;;;;5012336;28;20092;-54
2022/08/25 05:16:15;;;;;;;17.63;11.23;;;18.50;99.90;;;;;;5012406;28;20482;-54
2022/08/25 05:18:41;;;;;;;20.67;12.13;;;18.50;99.90;;;;;;5012422;28;20030;-54
2022/08/25 05:21:14;;;;;;;20.95;12.32;;;18.50;99.90;;;;;;5012262;28;20026;-54
2022/08/25 05:23:41;;;;;;;24.40;12.25;;;18.60;99.90;;;;;;5012205;28;20048;-55
2022/08/25 05:26:10;;;;;;;21.75;11.23;;;18.70;99.90;;;;;;5012266;28;20378;-55
2022/08/25 05:28:40;;;;;;;24.23;12.38;;;18.70;99.90;;;;;;5011551;28;20057;-54
2022/08/25 05:31:09;;;;;;;24.00;12.50;;;18.80;99.90;;;;;;5012086;28;20028;-54
2022/08/25 05:33:36;;;;;;;28.40;11.82;;;18.80;99.90;;;;;;5012018;28;20068;-54
2022/08/25 05:36:02;;;;;;;21.27;11.10;;;18.80;99.90;;;;;;4994212;28;20134;-54
2022/08/25 05:38:28;;;;;;;21.98;10.88;;;18.90;99.90;;;;;;5011895;28;20037;-54
2022/08/25 05:41:01;;;;;;;26.67;11.75;;;19.00;99.90;;;;;;5011882;28;20018;-54
2022/08/25 05:43:28;;;;;;;30.92;11.32;;;19.00;99.90;;;;;;5011881;28;20070;-53
2022/08/25 05:45:55;;;;;;;25.63;10.70;;;19.10;99.90;;;;;;5011794;28;20022;-53
2022/08/25 05:48:21;;;;;;;27.35;11.20;;;19.20;99.90;;;;;;5011582;28;20690;-54
2022/08/25 05:50:55;;;;;;;20.45;11.27;;;19.20;99.90;;;;;;5011636;28;20037;-56
2022/08/25 05:53:21;;;;;;;25.65;12.00;;;19.30;99.90;;;;;;5011752;28;20036;-53
2022/08/25 05:55:49;;;;;;;25.00;11.47;;;19.30;99.90;;;;;;5011735;28;20029;-55
2022/08/25 05:58:14;;;;;;;21.55;11.13;;;19.40;99.90;;;;;;5011499;28;20026;-55
2022/08/25 06:00:40;;;;;;;32.72;12.13;;;19.40;99.90;;;;;;5011619;28;20506;-55
2022/08/25 06:03:06;;;;;;;26.63;11.52;;;19.50;99.90;;;;;;5011334;28;20489;-55
2022/08/25 06:05:32;;;;;;;22.02;11.95;;;19.50;99.90;;;;;;5011512;28;20037;-56
2022/08/25 06:07:58;;;;;;;28.73;11.52;;;19.60;99.90;;;;;;5011314;28;20401;-55
2022/08/25 06:10:25;;;;;;;25.55;11.40;;;19.60;99.90;;;;;;5010906;28;20029;-56
2022/08/25 06:12:50;;;;;;;26.92;10.75;;;19.70;99.90;;;;;;5010868;28;20021;-54
2022/08/25 06:15:19;;;;;;;28.30;12.43;;;19.70;99.90;;;;;;5006373;28;20030;-56
2022/08/25 06:17:46;;;;;;;33.95;12.82;;;19.80;99.90;;;;;;5000370;28;20137;-54
2022/08/25 06:20:15;;;;;;;25.25;12.52;;;19.80;99.90;;;;;;5000931;28;20561;-55
2022/08/25 06:22:41;;;;;;;28.95;11.77;;;19.90;99.90;;;;;;5001395;28;20044;-55
2022/08/25 06:25:09;;;;;;;23.80;12.00;;;20.00;99.90;;;;;;5003546;28;20034;-55
2022/08/25 06:27:36;;;;;;;32.95;12.38;;;20.00;99.90;;;;;;5011250;28;20045;-55
2022/08/25 06:30:03;;;;;;;28.08;12.27;;;20.20;99.90;;;;;;4992389;28;20057;-54
2022/08/25 06:32:38;;;;;;;57.35;15.80;;;20.20;99.90;;;;;;5009866;28;20057;-54
2022/08/25 06:35:06;;;;;;;24.20;10.65;;;20.20;99.90;;;;;;5007540;28;20030;-55
2022/08/25 06:37:32;;;;;;;30.23;11.38;;;20.30;99.90;;;;;;5009685;28;20477;-55
2022/08/25 06:39:58;;;;;;;31.48;12.43;;;20.40;99.90;;;;;;5008969;28;20038;-53
2022/08/25 06:42:24;;;;;;;28.98;11.27;;;20.50;99.90;;;;;;5009625;28;20382;-53
2022/08/25 06:44:49;;;;;;;30.55;11.88;;;20.60;99.90;;;;;;5008883;28;20121;-54
2022/08/25 06:47:16;;;;;;;29.17;11.50;;;20.60;99.90;;;;;;4988455;28;20026;-54
2022/08/25 06:49:42;;;;;;;30.58;11.85;;;20.70;99.90;;;;;;5009289;28;20030;-53
2022/08/25 06:52:10;;;;;;;28.13;11.48;;;20.80;99.90;;;;;;5009614;28;20041;-54
2022/08/25 06:54:36;;;;;;;32.08;12.75;;;20.80;99.90;;;;;;5009404;28;20021;-54
2022/08/25 06:57:04;;;;;;;33.83;11.40;;;20.80;99.90;;;;;;5009816;28;20080;-55
2022/08/25 06:59:30;;;;;;;36.42;11.27;;;20.80;99.90;;;;;;5010619;28;20052;-54
2022/08/25 07:01:55;;;;;;;23.05;9.82;;;20.90;99.90;;;;;;5010485;28;20030;-54
2022/08/25 07:04:21;;;;;;;31.92;9.85;;;21.00;99.90;;;;;;5010324;28;20048;-54
2022/08/25 07:06:47;;;;;;;27.80;9.93;;;21.10;99.90;;;;;;5009896;28;20061;-53
2022/08/25 07:09:13;;;;;;;29.00;10.50;;;21.20;99.90;;;;;;5008653;28;20033;-53
2022/08/25 07:11:40;;;;;;;31.73;11.45;;;21.20;99.90;;;;;;5009383;28;20053;-57
2022/08/25 07:14:07;;;;;;;;;;;21.20;99.90;;;;;;5009066;28;20034;-56
2022/08/25 07:16:34;;;;;;;33.88;9.77;;;21.30;99.90;;;;;;5010404;28;19995;-57
2022/08/25 07:19:00;;;;;;;34.75;11.10;;;21.50;99.90;;;;;;5010187;28;20022;-57
2022/08/25 07:21:28;;;;;;;31.90;9.90;;;21.60;99.90;;;;;;5010030;28;20038;-56
2022/08/25 07:23:57;;;;;;;36.53;10.13;;;21.60;99.90;;;;;;5010089;28;20307;-55
2022/08/25 07:26:26;;;;;;;26.90;9.32;;;21.70;99.90;;;;;;5009875;28;20527;-56
2022/08/25 07:28:51;;;;;;;23.38;10.60;;;21.70;99.90;;;;;;5009997;28;20105;-56
2022/08/25 07:31:17;;;;;;;40.83;14.23;;;21.80;99.90;;;;;;5009770;28;20113;-56
2022/08/25 07:36:27;;;;;;;31.52;9.43;;;21.70;99.90;;;;;;5009443;28;20406;-56
2022/08/25 07:38:54;;;;;;;35.60;10.15;;;21.80;99.90;;;;;;5009578;28;20049;-55
2022/08/25 07:41:19;;;;;;;32.75;9.77;;;21.90;99.90;;;;;;5009694;28;20030;-56
2022/08/25 07:43:46;;;;;;;38.17;10.60;;;21.90;99.90;;;;;;5008748;28;20409;-56
2022/08/25 07:46:12;;;;;;;30.83;9.93;;;22.20;99.90;;;;;;5009540;28;20041;-56
2022/08/25 07:48:38;;;;;;;38.95;10.77;;;22.30;99.90;;;;;;5010084;28;20038;-56
2022/08/25 07:51:10;;;;;;;27.15;10.23;;;22.30;99.90;;;;;;5009527;28;20358;-56
2022/08/25 07:53:35;;;;;;;38.00;9.68;;;22.40;99.90;;;;;;5013909;28;20025;-57
2022/08/25 07:56:01;;;;;;;40.45;9.88;;;22.50;99.90;;;;;;5013075;28;20096;-56
2022/08/25 07:58:27;;;;;;;31.25;8.02;;;22.50;99.90;;;;;;4993978;28;20417;-56
2022/08/25 08:00:53;;;;;;;27.90;9.30;;;22.60;99.90;;;;;;5012948;28;20029;-56
2022/08/25 08:03:19;;;;;;;39.05;9.85;;;23.00;99.90;;;;;;5013367;28;20038;-55
2022/08/25 08:05:46;;;;;;;37.58;9.73;;;23.10;99.90;;;;;;5013874;28;20042;-56
2022/08/25 08:08:12;;;;;;;30.15;8.20;;;23.10;99.90;;;;;;5013680;28;20492;-56
2022/08/25 08:10:39;;;;;;;31.90;8.88;;;23.10;99.90;;;;;;5013180;28;20026;-56
2022/08/25 08:13:05;;;;;;;29.60;9.13;;;23.00;99.90;;;;;;5012763;28;20030;-56
2022/08/25 08:15:31;;;;;;;30.95;8.10;;;23.20;99.90;;;;;;5012711;28;20030;-56
2022/08/25 08:17:58;;;;;;;30.90;9.18;;;23.20;99.90;;;;;;5012461;28;20030;-56
2022/08/25 08:20:24;;;;;;;43.28;9.52;;;23.30;99.90;;;;;;5012794;28;20018;-56
2022/08/25 08:22:50;;;;;;;45.20;8.77;;;23.40;99.90;;;;;;5005971;28;20103;-56
2022/08/25 08:25:16;;;;;;;38.03;9.63;;;23.40;99.90;;;;;;4997624;28;20529;-56
2022/08/25 08:27:45;;;;;;;34.45;9.45;;;23.40;99.90;;;;;;5012245;28;20026;-53
2022/08/25 08:30:12;;;;;;;34.22;10.02;;;23.50;99.90;;;;;;5012273;28;20030;-56
2022/08/25 08:32:38;;;;;;;30.98;8.77;;;23.50;99.90;;;;;;5012177;28;20558;-57
2022/08/25 08:35:04;;;;;;;37.28;9.02;;;23.80;99.90;;;;;;5012085;28;20030;-56
2022/08/25 08:37:30;;;;;;;44.20;10.90;;;23.90;99.90;;;;;;5012436;28;20056;-56
2022/08/25 08:39:56;;;;;;;36.33;10.17;;;24.10;99.90;;;;;;4994584;28;20033;-56
2022/08/25 08:42:38;;;;;;;42.88;9.63;;;24.10;99.90;;;;;;5011986;28;20030;-55
2022/08/25 08:45:32;;;;;;;50.60;11.27;;;24.10;99.90;;;;;;5012001;28;20042;-56
2022/08/25 08:48:18;;;;;;;39.97;10.00;;;24.20;99.90;;;;;;5011872;28;20034;-56
2022/08/25 08:51:24;;;;;;;32.85;8.88;;;24.30;99.90;;;;;;5009359;28;20482;-56
2022/08/25 08:54:10;;;;;;;38.70;9.93;;;24.30;99.90;;;;;;4931018;29;20444;-56
2022/08/25 08:56:42;;;;;;;33.30;8.32;;;24.40;99.90;;;;;;4931409;29;20031;-56
2022/08/25 08:59:18;;;;;;;34.13;9.18;;;24.80;99.90;;;;;;4981500;28;20046;-56
2022/08/25 09:01:46;;;;;;;40.35;9.98;;;24.90;99.90;;;;;;5009733;28;20644;-56
2022/08/25 09:04:35;;;;;;;31.27;8.57;;;24.90;99.90;;;;;;5008616;28;20045;-56
2022/08/25 09:07:05;;;;;;;35.65;9.93;;;25.00;99.90;;;;;;5010090;28;20539;-56
2022/08/25 09:09:39;;;;;;;34.15;8.82;;;25.10;99.90;;;;;;5085756;23;20566;-93
2022/08/25 09:12:32;;;;;;;38.25;9.25;;;25.10;99.90;;;;;;5034685;28;20033;-94
2022/08/25 09:15:17;;;;;;;39.00;9.98;;;25.20;99.90;;;;;;5035217;28;20080;-94
2022/08/25 09:18:17;;;;;;;34.25;8.30;;;25.30;99.90;;;;;;5037471;28;20022;-94
2022/08/25 09:20:51;;;;;;;28.90;8.43;;;25.50;99.90;;;;;;5036742;28;20104;-93
2022/08/25 09:23:44;;;;;;;41.58;9.90;;;25.60;99.90;;;;;;5035797;28;20068;-94
2022/08/25 09:26:15;;;;;;;36.03;8.88;;;25.70;99.90;;;;;;5035747;28;20469;-94
2022/08/25 09:28:54;;;;;;;28.42;8.90;;;25.90;99.90;;;;;;5034393;28;20029;-95
2022/08/25 09:31:24;;;;;;;33.08;9.20;;;26.00;99.90;;;;;;5034667;28;20081;-94
2022/08/25 09:33:54;;;;;;;34.05;8.60;;;26.20;99.90;;;;;;5034949;28;20082;-94
2022/08/25 09:36:20;;;;;;;36.58;8.43;;;26.20;99.90;;;;;;5035934;28;20029;-95
2022/08/25 09:38:46;;;;;;;37.78;9.55;;;26.30;99.90;;;;;;5034685;28;20022;-95
2022/08/25 09:41:16;;;;;;;28.88;9.07;;;26.20;99.90;;;;;;5034604;28;20492;-94
2022/08/25 09:43:51;;;;;;;34.65;9.98;;;26.20;99.90;;;;;;5034623;28;20397;-94
2022/08/25 09:46:31;;;;;;;38.25;9.20;;;26.20;99.90;;;;;;5017560;28;20034;-94
2022/08/25 09:49:09;;;;;;;42.92;10.82;;;26.40;99.90;;;;;;5034859;28;20127;-93
2022/08/25 09:51:40;;;;;;;41.58;9.15;;;26.70;99.90;;;;;;5035412;28;20389;-94
2022/08/25 09:54:18;;;;;;;39.72;8.93;;;26.80;99.90;;;;;;5035575;28;20167;-93
2022/08/25 09:56:49;;;;;;;28.95;8.60;;;27.10;99.90;;;;;;5037353;28;20636;-92
2022/08/25 09:59:26;;;;;;;36.35;8.65;;;27.20;99.90;;;;;;5035872;28;20032;-93
2022/08/25 10:01:54;;;;;;;32.08;8.95;;;27.40;99.90;;;;;;5035833;28;20033;-94
2022/08/25 10:04:32;;;;;;;43.75;9.95;;;27.40;99.90;;;;;;5035444;28;20380;-96
2022/08/25 10:07:01;;;;;;;39.47;10.38;;;27.50;99.90;;;;;;5034595;28;20022;-93
2022/08/25 10:09:51;;;;;;;33.30;10.32;;;27.50;99.90;;;;;;5020469;28;20076;-93
2022/08/25 10:12:23;;;;;;;44.78;9.65;;;27.70;99.90;;;;;;5022601;28;20037;-92
2022/08/25 10:14:50;;;;;;;44.72;10.82;;;27.80;99.90;;;;;;5019639;28;20029;-94
2022/08/25 10:17:27;;;;;;;44.92;9.85;;;28.00;99.90;;;;;;5021120;28;20049;-93
2022/08/25 10:20:11;;;;;;;46.87;11.30;;;28.10;99.90;;;;;;5039451;28;20030;-94
2022/08/25 10:22:38;;;;;;;39.95;9.40;;;28.20;99.90;;;;;;5035701;28;20093;-94
2022/08/25 10:25:08;;;;;;;43.53;10.00;;;28.30;99.90;;;;;;5035570;28;20030;-95
2022/08/25 10:27:38;;;;;;;40.03;10.13;;;28.40;99.90;;;;;;5034601;28;20080;-94
2022/08/25 10:30:06;;;;;;;46.38;11.13;;;28.40;99.90;;;;;;5034253;28;20112;-93
2022/08/25 10:32:51;;;;;;;41.00;9.88;;;28.50;99.90;;;;;;5035495;28;20025;-94
2022/08/25 10:35:29;;;;;;;41.25;11.07;;;28.60;99.90;;;;;;5040962;28;20808;-94
2022/08/25 10:38:10;;;;;;;46.45;10.02;;;28.50;99.90;;;;;;5042431;28;20120;-93
2022/08/25 10:41:06;;;;;;;37.10;9.15;;;28.60;99.90;;;;;;5040823;28;20029;-94
2022/08/25 10:47:39;;;;;;;37.05;8.90;;;28.80;99.90;;;;;;5035962;28;20041;-94
2022/08/25 10:50:13;;;;;;;40.55;10.25;;;28.50;99.90;;;;;;5018883;28;20025;-91
2022/08/25 10:53:01;;;;;;;47.13;10.30;;;28.40;99.90;;;;;;5036071;28;20028;-91
2022/08/25 10:55:57;;;;;;;41.70;10.40;;;28.80;99.90;;;;;;5033375;28;20120;-90
2022/08/25 10:58:37;;;;;;;40.88;8.77;;;29.10;99.90;;;;;;5016521;28;20025;-90
2022/08/25 11:01:13;;;;;;;34.10;8.93;;;29.20;99.90;;;;;;5033956;28;20064;-89
2022/08/25 11:03:51;;;;;;;37.22;9.65;;;29.20;99.90;;;;;;5032552;28;20064;-89
2022/08/25 11:06:33;;;;;;;41.38;9.90;;;29.30;99.90;;;;;;5033665;28;20093;-90
2022/08/25 11:09:06;;;;;;;31.17;9.10;;;29.50;99.90;;;;;;5032925;28;20061;-90
2022/08/25 11:11:38;;;;;;;36.60;9.82;;;30.10;99.90;;;;;;5032324;28;20029;-89
2022/08/25 11:14:22;;;;;;;45.45;9.75;;;30.70;99.90;;;;;;5015181;28;20026;-91
2022/08/25 11:17:12;;;;;;;36.67;9.35;;;30.70;99.90;;;;;;5003208;28;20478;-91
2022/08/25 11:19:44;;;;;;;40.15;9.70;;;30.80;99.90;;;;;;5003337;28;20026;-88
2022/08/25 11:22:27;;;;;;;37.88;9.82;;;31.00;99.90;;;;;;5001838;28;20037;-94
2022/08/25 11:25:22;;;;;;;32.85;8.90;;;30.90;99.90;;;;;;4999200;28;20117;-93
2022/08/25 11:27:59;;;;;;;28.48;8.35;;;30.80;99.90;;;;;;4979041;28;20042;-94
2022/08/25 11:30:26;;;;;;;35.13;8.93;;;30.60;99.90;;;;;;4979057;28;20019;-93
2022/08/25 11:32:54;;;;;;;34.90;8.88;;;30.50;99.90;;;;;;4985304;28;20039;-87
2022/08/25 11:35:39;;;;;;;34.78;8.50;;;30.20;99.90;;;;;;4985681;28;20038;-88
2022/08/25 11:38:32;;;;;;;40.67;9.40;;;30.20;99.90;;;;;;4984146;28;20034;-91
2022/08/25 11:41:32;;;;;;;47.90;11.05;;;29.90;99.90;;;;;;4987580;28;20026;-91
2022/08/25 11:44:13;;;;;;;35.53;8.85;;;29.80;99.90;;;;;;4987480;28;20030;-89
2022/08/25 11:46:58;;;;;;;40.53;10.23;;;29.80;99.90;;;;;;4985402;28;20454;-93
2022/08/25 11:49:36;;;;;;;32.45;9.68;;;29.80;99.90;;;;;;4985451;28;20038;-91
2022/08/25 11:52:08;;;;;;;36.60;9.07;;;30.00;99.90;;;;;;4999012;28;20493;-92
2022/08/25 11:54:37;;;;;;;31.80;8.77;;;30.40;99.90;;;;;;5001070;28;20049;-91
2022/08/25 11:57:20;;;;;;;34.55;8.52;;;30.80;99.90;;;;;;5003690;28;20080;-91
2022/08/25 11:59:52;;;;;;;42.80;9.48;;;31.10;99.90;;;;;;5007629;28;20030;-93
2022/08/25 12:02:30;;;;;;;39.28;8.20;;;31.50;99.90;;;;;;5007793;28;20026;-91
2022/08/25 12:04:59;;;;;;;31.35;7.53;;;32.20;99.00;;;;;;5007537;28;20097;-92
2022/08/25 12:07:47;;;;;;;38.83;8.43;;;32.10;99.10;;;;;;5007285;28;20053;-93
2022/08/25 12:10:19;;;;;;;33.95;9.07;;;31.80;98.10;;;;;;5003853;28;20118;-92
2022/08/25 12:12:45;;;;;;;42.13;8.93;;;31.70;99.90;;;;;;5000441;28;20059;-90
2022/08/25 12:15:31;;;;;;;32.43;7.90;;;31.60;98.70;;;;;;4997124;28;20022;-92
2022/08/25 12:18:11;;;;;;;41.25;8.65;;;31.70;99.20;;;;;;4995787;28;20034;-92
2022/08/25 12:20:52;;;;;;;37.22;8.05;;;31.90;99.50;;;;;;4999757;28;20029;-92
2022/08/25 12:23:43;;;;;;;43.05;8.75;;;32.10;99.90;;;;;;4999308;28;20056;-92
2022/08/25 12:26:35;;;;;;;42.72;9.45;;;32.60;96.70;;;;;;4998519;28;20026;-91
2022/08/25 12:29:09;;;;;;;35.83;9.43;;;32.50;98.20;;;;;;4995129;28;20106;-90
2022/08/25 12:32:13;;;;;;;34.85;8.43;;;32.70;95.80;;;;;;4993175;28;20029;-91
2022/08/25 12:34:44;;;;;;;30.75;8.68;;;32.70;96.80;;;;;;4932497;29;20027;-92
2022/08/25 12:37:22;;;;;;;25.20;7.43;;;33.00;94.90;;;;;;4930618;29;20055;-90
2022/08/25 12:39:48;;;;;;;31.60;6.88;;;33.40;95.90;;;;;;4968021;28;20030;-90
2022/08/25 12:42:28;;;;;;;29.37;7.97;;;33.50;94.40;;;;;;4999033;28;20030;-90
2022/08/25 12:45:30;;;;;;;20.70;6.78;;;33.50;93.20;;;;;;4995553;28;20034;-90
2022/08/25 12:48:25;;;;;;;31.85;8.55;;;33.70;91.40;;;;;;4979758;28;20371;-92
2022/08/25 12:51:04;;;;;;;39.45;9.55;;;33.60;91.60;;;;;;4996575;28;20084;-90
2022/08/25 12:53:42;;;;;;;32.65;8.68;;;33.10;92.60;;;;;;4989964;28;20030;-90
2022/08/25 12:56:20;;;;;;;33.55;8.20;;;32.90;92.00;;;;;;4988254;28;20038;-88
2022/08/25 12:58:53;;;;;;;;;;;32.90;92.00;;;;;;4989505;28;20050;-91
2022/08/25 13:01:44;;;;;;;33.83;8.48;;;32.70;92.70;;;;;;4989942;28;19910;-91
2022/08/25 13:04:35;;;;;;;23.88;7.43;;;32.70;92.90;;;;;;4998110;28;20054;-89